Time;durP1;ratioP1;P1;durP2;ratioP2;P2;SDS_P1;SDS_P2;PMS_P1;PMS_P2;Temp;Humidity;BMP_temperature;BMP_pressure;BME280_temperature;BME280_humidity;BME280_pressure;Samples;Min_cycle;Max_cycle;Signal;HPM_P1;HPM_P2
2022/11/27 00:00:16;;;;;;;25.83;17.77;;;;;;;7.53;61.30;100602.69;5032275;28;20194;-54
2022/11/27 00:02:42;;;;;;;23.13;16.93;;;;;;;7.55;60.78;100600.22;5031945;28;20659;-54
2022/11/27 00:05:11;;;;;;;24.90;16.27;;;;;;;7.56;60.93;100602.84;5032174;28;20541;-54
2022/11/27 00:07:37;;;;;;;22.07;16.70;;;;;;;7.65;60.33;100597.25;5042930;28;20671;-54
2022/11/27 00:10:06;;;;;;;22.77;17.03;;;;;;;7.71;60.09;100598.44;5051988;28;20195;-54
2022/11/27 00:12:32;;;;;;;22.53;17.10;;;;;;;7.75;60.04;100590.91;5051749;28;20575;-54
2022/11/27 00:14:59;;;;;;;25.07;18.63;;;;;;;7.70;60.64;100604.34;5051904;28;20190;-54
2022/11/27 00:17:26;;;;;;;27.70;18.43;;;;;;;7.66;61.41;100601.59;5051710;28;20185;-53
2022/11/27 00:19:53;;;;;;;27.40;20.10;;;;;;;7.68;61.10;100610.19;5060178;28;20204;-53
2022/11/27 00:22:21;;;;;;;29.73;21.53;;;;;;;7.67;61.65;100611.00;5052128;28;20191;-53
2022/11/27 00:24:47;;;;;;;28.43;20.13;;;;;;;7.67;62.16;100609.31;5052040;28;20216;-53
2022/11/27 00:27:14;;;;;;;26.23;19.60;;;;;;;7.54;62.24;100594.22;5051984;28;20192;-53
2022/11/27 00:29:41;;;;;;;31.17;21.27;;;;;;;7.61;62.55;100608.16;5051850;28;20199;-53
2022/11/27 00:32:08;;;;;;;28.50;20.73;;;;;;;7.56;63.67;100610.50;5051784;28;20186;-53
2022/11/27 00:34:35;;;;;;;30.20;21.97;;;;;;;7.56;63.16;100605.38;5051513;28;20232;-53
2022/11/27 00:37:02;;;;;;;29.07;21.50;;;;;;;7.56;63.75;100614.72;5051626;28;20192;-53
2022/11/27 00:39:30;;;;;;;31.60;20.57;;;;;;;7.48;63.91;100611.84;5051798;28;20188;-52
2022/11/27 00:41:57;;;;;;;29.23;20.57;;;;;;;7.44;64.20;100615.06;5052301;28;20210;-53
2022/11/27 00:44:23;;;;;;;27.87;19.30;;;;;;;7.34;65.02;100614.53;5051868;28;20239;-53
2022/11/27 00:46:50;;;;;;;23.57;18.27;;;;;;;7.23;65.31;100618.28;5051715;28;20204;-53
2022/11/27 00:49:17;;;;;;;27.30;18.67;;;;;;;7.21;64.91;100619.88;5051608;28;20199;-53
2022/11/27 00:51:44;;;;;;;27.80;19.37;;;;;;;7.18;65.12;100624.84;5054995;28;20241;-53
2022/11/27 00:54:11;;;;;;;26.57;19.60;;;;;;;7.15;65.42;100630.69;5055419;28;20229;-53
2022/11/27 00:56:40;;;;;;;28.37;18.77;;;;;;;7.18;65.03;100638.50;5055640;28;20594;-53
2022/11/27 00:59:07;;;;;;;28.03;19.97;;;;;;;7.13;65.64;100624.66;5055590;28;20269;-53
2022/11/27 01:01:38;;;;;;;27.27;20.27;;;;;;;7.06;65.21;100610.69;5055465;28;20241;-53
2022/11/27 01:04:06;;;;;;;27.80;19.97;;;;;;;7.17;66.20;100630.78;5055370;28;20217;-53
2022/11/27 01:06:33;;;;;;;29.00;21.50;;;;;;;7.13;65.92;100624.66;5055417;28;20184;-53
2022/11/27 01:09:00;;;;;;;29.27;21.73;;;;;;;7.10;65.41;100622.81;5055266;28;20191;-53
2022/11/27 01:11:29;;;;;;;31.35;25.23;;;;;;;7.08;65.56;100621.88;5054765;28;20431;-53
2022/11/27 01:13:59;;;;;;;37.37;24.03;;;;;;;7.07;65.79;100617.56;5055369;28;20225;-53
2022/11/27 01:16:28;;;;;;;34.90;24.67;;;;;;;7.00;65.58;100609.53;5055236;28;20191;-54
2022/11/27 01:18:58;;;;;;;32.30;22.30;;;;;;;7.00;65.90;100605.28;5048227;28;20207;-53
2022/11/27 01:21:26;;;;;;;32.33;21.70;;;;;;;6.97;65.57;100606.84;5043891;28;20201;-53
2022/11/27 01:23:54;;;;;;;28.90;21.40;;;;;;;6.97;65.70;100617.06;5046483;28;20234;-53
2022/11/27 01:26:21;;;;;;;33.70;22.13;;;;;;;6.97;64.45;100604.28;5044005;28;20203;-53
2022/11/27 01:28:51;;;;;;;26.87;20.40;;;;;;;6.96;64.91;100613.63;5041149;28;20636;-53
2022/11/27 01:31:22;;;;;;;29.00;20.23;;;;;;;6.94;64.86;100609.25;5046151;28;20591;-53
2022/11/27 01:33:53;;;;;;;26.10;19.37;;;;;;;6.94;65.02;100604.13;5040980;28;20198;-53
2022/11/27 01:36:20;;;;;;;25.90;19.20;;;;;;;6.95;64.56;100611.00;4995479;28;20190;-53
2022/11/27 01:38:47;;;;;;;27.73;20.00;;;;;;;6.93;65.01;100616.03;5002457;28;20254;-53
2022/11/27 01:41:17;;;;;;;30.27;19.80;;;;;;;6.92;64.86;100608.28;5009001;28;20211;-53
2022/11/27 01:43:46;;;;;;;27.00;19.63;;;;;;;6.90;65.90;100609.88;5004270;28;20637;-53
2022/11/27 01:46:31;;;;;;;27.77;20.27;;;;;;;6.89;65.45;100616.69;5000719;28;20215;-53
2022/11/27 01:49:03;;;;;;;29.17;20.13;;;;;;;6.90;65.48;100607.31;5014819;28;20199;-52
2022/11/27 01:51:31;;;;;;;25.73;19.00;;;;;;;6.92;65.17;100615.97;5014940;28;20191;-53
2022/11/27 01:53:58;;;;;;;32.77;21.17;;;;;;;6.88;65.38;100603.81;5009971;28;20240;-53
2022/11/27 01:56:27;;;;;;;26.90;20.30;;;;;;;6.89;65.08;100610.69;5003908;28;20749;-55
2022/11/27 01:58:55;;;;;;;28.87;20.13;;;;;;;6.80;65.01;100606.00;5012511;28;20203;-52
2022/11/27 02:01:23;;;;;;;31.00;22.10;;;;;;;6.70;64.85;100605.50;5014743;28;20569;-52
2022/11/27 02:03:51;;;;;;;34.28;25.95;;;;;;;6.72;65.38;100598.78;5014382;28;20442;-53
2022/11/27 02:06:18;;;;;;;33.90;25.47;;;;;;;6.73;64.92;100590.31;5014653;28;20203;-53
2022/11/27 02:08:45;;;;;;;33.93;24.67;;;;;;;6.73;64.91;100598.84;5014643;28;20204;-53
2022/11/27 02:11:20;;;;;;;34.10;25.17;;;;;;;6.74;65.09;100609.94;5014682;28;20192;-52
2022/11/27 02:13:52;;;;;;;36.60;25.57;;;;;;;6.78;65.88;100601.63;5015452;28;20245;-53
2022/11/27 02:16:29;;;;;;;36.63;25.70;;;;;;;6.77;65.83;100594.75;5014471;28;20204;-53
2022/11/27 02:19:07;;;;;;;36.60;29.25;;;;;;;6.87;66.03;100589.28;5013416;28;20442;-53
2022/11/27 02:21:41;;;;;;;32.77;24.93;;;;;;;6.88;64.49;100588.50;5014776;28;20193;-53
2022/11/27 02:24:49;;;;;;;29.80;24.33;;;;;;;6.91;65.27;100596.31;5014230;28;20220;-53
2022/11/27 02:27:33;;;;;;;37.47;25.20;;;;;;;6.92;65.45;100610.84;5009136;28;20241;-53
2022/11/27 02:30:03;;;;;;;35.30;23.97;;;;;;;6.91;65.24;100609.09;5014170;28;20200;-53
2022/11/27 02:32:37;;;;;;;38.17;24.20;;;;;;;6.83;65.13;100597.63;5014703;28;20196;-53
2022/11/27 02:35:12;;;;;;;30.37;23.17;;;;;;;6.90;65.67;100613.31;5034580;28;20343;-53
2022/11/27 02:37:44;;;;;;;32.37;24.67;;;;;;;6.90;65.00;100610.75;5053824;28;20707;-53
2022/11/27 02:40:16;;;;;;;31.37;22.97;;;;;;;6.90;65.55;100614.97;5053851;28;20189;-53
2022/11/27 02:42:48;;;;;;;28.60;22.97;;;;;;;6.80;66.19;100605.13;5053805;28;20296;-53
2022/11/27 02:45:21;;;;;;;29.83;22.83;;;;;;;6.83;66.42;100611.28;5053808;28;20229;-53
2022/11/27 02:47:50;;;;;;;29.60;22.73;;;;;;;6.81;65.54;100604.34;5053650;28;20229;-53
2022/11/27 02:50:19;;;;;;;30.20;21.63;;;;;;;6.84;66.10;100605.34;5053631;28;20192;-53
2022/11/27 02:52:49;;;;;;;29.47;21.67;;;;;;;6.79;66.09;100609.34;5053245;28;20578;-53
2022/11/27 02:55:20;;;;;;;29.20;20.83;;;;;;;6.81;65.98;100614.56;5054114;28;20199;-53
2022/11/27 02:57:48;;;;;;;31.13;22.00;;;;;;;6.83;65.77;100620.59;5053238;28;20443;-53
2022/11/27 03:00:18;;;;;;;26.50;20.93;;;;;;;6.83;65.89;100613.81;5053140;28;20617;-53
2022/11/27 03:02:50;;;;;;;27.77;20.40;;;;;;;6.77;66.53;100615.19;5053230;28;20649;-53
2022/11/27 03:05:20;;;;;;;25.83;19.63;;;;;;;6.72;66.34;100603.88;5053302;28;20227;-54
2022/11/27 03:07:52;;;;;;;29.83;20.37;;;;;;;6.82;66.56;100619.72;5053917;28;20244;-54
2022/11/27 03:10:24;;;;;;;27.40;20.63;;;;;;;6.87;66.01;100619.94;5053431;28;20562;-53
2022/11/27 03:12:51;;;;;;;27.23;19.87;;;;;;;6.90;66.57;100627.75;5052405;28;20194;-53
2022/11/27 03:15:21;;;;;;;26.70;20.33;;;;;;;6.87;66.48;100622.50;5053376;28;20290;-53
2022/11/27 03:17:53;;;;;;;24.43;18.77;;;;;;;6.87;66.38;100625.94;5053038;28;20274;-54
2022/11/27 03:20:24;;;;;;;24.30;18.50;;;;;;;6.84;65.88;100625.78;5052990;28;20666;-53
2022/11/27 03:22:52;;;;;;;28.43;18.23;;;;;;;6.92;65.44;100632.13;5052707;28;20237;-53
2022/11/27 03:25:19;;;;;;;23.23;17.53;;;;;;;6.95;66.07;100623.78;5052845;28;20218;-53
2022/11/27 03:27:51;;;;;;;23.13;18.07;;;;;;;6.98;65.78;100624.78;5052692;28;20623;-53
2022/11/27 03:30:20;;;;;;;27.17;18.33;;;;;;;6.98;66.34;100623.88;5052739;28;20201;-54
2022/11/27 03:32:47;;;;;;;26.33;19.47;;;;;;;6.88;65.89;100611.50;5052544;28;20199;-54
2022/11/27 03:35:17;;;;;;;24.97;18.67;;;;;;;7.02;65.78;100630.91;5052861;28;20232;-53
2022/11/27 03:37:44;;;;;;;23.73;18.90;;;;;;;7.05;65.83;100631.06;5052798;28;20189;-53
2022/11/27 03:40:12;;;;;;;25.27;18.20;;;;;;;7.08;66.34;100631.22;5052501;28;20194;-57
2022/11/27 03:42:51;;;;;;;26.33;20.03;;;;;;;7.06;66.35;100627.69;5052673;28;20528;-54
2022/11/27 03:45:30;;;;;;;26.43;18.87;;;;;;;7.04;65.75;100630.19;5052252;28;20226;-53
2022/11/27 03:48:10;;;;;;;22.87;17.60;;;;;;;7.02;65.96;100631.81;5052902;28;20256;-54
2022/11/27 03:50:50;;;;;;;24.42;18.70;;;;;;;7.02;66.21;100629.25;5052675;28;20880;-54
2022/11/27 03:53:23;;;;;;;24.20;17.83;;;;;;;6.97;65.47;100627.28;5052495;28;20249;-54
2022/11/27 03:55:55;;;;;;;22.23;17.00;;;;;;;6.99;65.51;100625.66;5052833;28;20202;-53
2022/11/27 03:58:31;;;;;;;21.80;16.53;;;;;;;6.97;65.52;100627.28;5052228;28;20202;-53
2022/11/27 04:01:01;;;;;;;23.20;16.20;;;;;;;6.91;66.23;100630.41;5052181;28;20191;-53
2022/11/27 04:03:29;;;;;;;20.47;16.63;;;;;;;6.89;66.37;100623.47;5045678;28;20199;-54
2022/11/27 04:05:57;;;;;;;24.73;16.70;;;;;;;6.83;66.83;100624.03;5040205;28;20219;-54
2022/11/27 04:08:24;;;;;;;24.40;16.97;;;;;;;6.71;66.49;100597.91;5042994;28;20673;-54
2022/11/27 04:10:51;;;;;;;22.30;17.30;;;;;;;6.77;66.40;100616.06;5052052;28;20668;-54
2022/11/27 04:13:17;;;;;;;23.27;17.13;;;;;;;6.83;66.44;100610.41;5052053;28;20633;-54
2022/11/27 04:15:44;;;;;;;20.23;16.03;;;;;;;6.88;66.87;100611.50;5051809;28;20669;-53
2022/11/27 04:18:12;;;;;;;22.47;16.13;;;;;;;6.83;67.42;100618.94;5065661;28;20203;-54
2022/11/27 04:20:39;;;;;;;18.57;15.47;;;;;;;6.84;67.14;100617.28;5072036;28;20585;-54
2022/11/27 04:23:06;;;;;;;23.93;17.27;;;;;;;6.80;66.69;100620.47;5072074;28;20616;-53
2022/11/27 04:25:33;;;;;;;19.60;15.37;;;;;;;6.77;67.40;100620.31;5071565;28;20229;-53
2022/11/27 04:28:00;;;;;;;21.97;16.37;;;;;;;6.75;67.07;100612.59;5072333;28;20227;-53
2022/11/27 04:30:26;;;;;;;22.60;16.37;;;;;;;6.73;67.18;100621.81;5072009;28;20194;-53
2022/11/27 04:32:53;;;;;;;21.07;16.23;;;;;;;6.68;66.83;100617.28;5069991;28;20211;-55
2022/11/27 04:35:21;;;;;;;20.40;15.47;;;;;;;6.67;67.14;100620.66;5071840;28;20707;-54
2022/11/27 04:37:49;;;;;;;20.00;16.00;;;;;;;6.56;67.00;100611.59;5051928;28;20661;-53
2022/11/27 04:40:16;;;;;;;22.53;16.33;;;;;;;6.56;67.31;100612.47;5059512;28;20205;-54
2022/11/27 04:42:43;;;;;;;20.53;16.50;;;;;;;6.53;67.56;100613.19;5071828;28;20211;-53
2022/11/27 04:45:11;;;;;;;24.08;18.65;;;;;;;6.58;67.59;100610.88;5071824;28;20442;-53
2022/11/27 04:47:37;;;;;;;23.93;16.47;;;;;;;6.69;67.71;100614.81;5054410;28;20602;-54
2022/11/27 04:50:05;;;;;;;19.33;16.53;;;;;;;6.65;67.17;100617.16;5051743;28;20193;-54
2022/11/27 04:52:34;;;;;;;20.93;15.90;;;;;;;6.63;67.51;100623.84;5051777;28;20187;-53
2022/11/27 04:55:00;;;;;;;25.07;16.87;;;;;;;6.60;68.40;100622.03;5051880;28;20195;-54
2022/11/27 04:57:28;;;;;;;24.60;16.97;;;;;;;6.59;67.83;100625.41;5051335;28;20216;-54
2022/11/27 04:59:54;;;;;;;25.37;17.03;;;;;;;6.57;67.50;100626.97;5051612;28;20197;-54
2022/11/27 05:02:21;;;;;;;20.53;15.87;;;;;;;6.56;66.82;100621.81;5051636;28;20195;-54
2022/11/27 05:04:48;;;;;;;24.03;17.10;;;;;;;6.61;66.86;100631.44;5051730;28;20216;-54
2022/11/27 05:07:15;;;;;;;23.80;16.70;;;;;;;6.58;67.46;100623.63;5051423;28;20652;-54
2022/11/27 05:09:43;;;;;;;25.13;17.17;;;;;;;6.59;67.67;100630.50;5051945;28;20199;-53
2022/11/27 05:12:10;;;;;;;22.73;16.90;;;;;;;6.55;67.61;100623.47;5051541;28;20630;-54
2022/11/27 05:14:37;;;;;;;26.97;18.47;;;;;;;6.59;67.85;100629.63;5051460;28;20198;-53
2022/11/27 05:17:04;;;;;;;23.13;17.27;;;;;;;6.62;67.89;100628.06;5050953;28;20195;-54
2022/11/27 05:19:30;;;;;;;25.80;16.97;;;;;;;6.60;68.22;100619.47;5067166;28;20196;-54
2022/11/27 05:21:58;;;;;;;23.13;16.30;;;;;;;6.67;68.35;100630.88;5071471;28;20192;-54
2022/11/27 05:24:27;;;;;;;21.57;15.97;;;;;;;6.64;67.23;100634.16;5061247;28;20216;-54
2022/11/27 05:26:55;;;;;;;28.20;18.93;;;;;;;6.63;67.77;100636.63;5051628;28;20231;-54
2022/11/27 05:29:23;;;;;;;24.30;17.13;;;;;;;6.67;66.91;100641.97;5051314;28;20647;-55
2022/11/27 05:31:49;;;;;;;20.90;15.37;;;;;;;6.70;67.48;100646.34;5051272;28;20248;-54
2022/11/27 05:34:16;;;;;;;20.67;15.57;;;;;;;6.72;67.06;100647.28;5051298;28;20227;-54
2022/11/27 05:36:43;;;;;;;22.50;15.67;;;;;;;6.74;66.97;100640.59;5052864;28;20207;-54
2022/11/27 05:39:11;;;;;;;17.03;14.50;;;;;;;6.69;67.12;100640.38;5054928;28;20189;-53
2022/11/27 05:41:41;;;;;;;21.93;16.00;;;;;;;6.71;66.13;100630.22;5054797;28;20204;-53
2022/11/27 05:44:11;;;;;;;23.90;15.60;;;;;;;6.59;66.62;100619.41;5058540;28;20197;-53
2022/11/27 05:46:38;;;;;;;21.60;15.13;;;;;;;6.72;66.38;100648.19;5074969;28;20190;-54
2022/11/27 05:49:05;;;;;;;27.80;17.50;;;;;;;6.78;66.48;100639.94;5074591;28;20199;-53
2022/11/27 05:51:32;;;;;;;23.57;15.43;;;;;;;6.80;65.68;100631.56;5074714;28;20653;-54
2022/11/27 05:53:59;;;;;;;23.27;16.57;;;;;;;6.88;65.67;100644.69;5074361;28;20190;-53
2022/11/27 05:56:26;;;;;;;24.37;16.57;;;;;;;6.91;65.38;100662.72;5074506;28;20655;-53
2022/11/27 05:58:53;;;;;;;20.17;16.07;;;;;;;6.92;64.60;100667.91;5074225;28;20196;-53
2022/11/27 06:01:21;;;;;;;22.47;16.57;;;;;;;6.84;65.66;100665.78;5074541;28;20208;-53
2022/11/27 06:03:48;;;;;;;22.57;16.00;;;;;;;6.90;65.08;100669.50;5074324;28;20667;-53
2022/11/27 06:06:17;;;;;;;27.27;17.53;;;;;;;6.87;65.57;100660.81;5074121;28;20692;-53
2022/11/27 06:08:45;;;;;;;23.43;17.20;;;;;;;6.91;65.86;100671.28;5067974;28;20199;-53
2022/11/27 06:11:13;;;;;;;25.57;17.43;;;;;;;6.97;65.62;100669.03;5063175;28;20198;-54
2022/11/27 06:13:40;;;;;;;26.70;19.97;;;;;;;7.05;64.79;100677.06;5074059;28;20187;-53
2022/11/27 06:16:09;;;;;;;28.17;19.70;;;;;;;7.07;64.31;100680.56;5074081;28;20198;-54
2022/11/27 06:18:37;;;;;;;27.30;19.57;;;;;;;7.05;63.95;100669.41;5073837;28;20731;-53
2022/11/27 06:21:07;;;;;;;27.07;19.80;;;;;;;7.09;63.44;100672.16;5074158;28;20198;-53
2022/11/27 06:23:34;;;;;;;34.20;22.30;;;;;;;7.18;63.61;100684.53;5073931;28;20194;-54
2022/11/27 06:26:10;;;;;;;27.73;20.50;;;;;;;7.24;63.70;100676.28;5073775;28;20219;-54
2022/11/27 06:28:37;;;;;;;24.47;19.47;;;;;;;7.22;63.63;100676.22;5074145;28;20202;-54
2022/11/27 06:31:06;;;;;;;27.17;18.73;;;;;;;7.22;63.20;100673.66;5074012;28;20206;-54
2022/11/27 06:33:33;;;;;;;26.52;22.15;;;;;;;7.22;63.26;100676.22;5072990;28;20622;-54
2022/11/27 06:36:01;;;;;;;23.87;19.07;;;;;;;7.22;63.16;100671.09;5073683;28;20709;-53
2022/11/27 06:38:28;;;;;;;25.53;19.73;;;;;;;7.28;63.88;100673.94;5073600;28;20347;-54
2022/11/27 06:40:55;;;;;;;25.17;19.10;;;;;;;7.27;63.57;100669.63;5073434;28;20200;-54
2022/11/27 06:43:22;;;;;;;26.00;18.40;;;;;;;7.29;63.45;100674.81;5073597;28;20238;-54
2022/11/27 06:45:56;;;;;;;27.27;18.73;;;;;;;7.36;63.26;100674.31;5073251;28;20217;-54
2022/11/27 06:48:23;;;;;;;27.43;19.37;;;;;;;7.28;63.42;100666.25;5073481;28;20208;-54
2022/11/27 06:50:49;;;;;;;26.50;19.03;;;;;;;7.32;63.19;100668.16;5073190;28;20193;-53
2022/11/27 06:53:18;;;;;;;24.43;18.87;;;;;;;7.49;63.22;100677.53;5073254;28;20194;-54
2022/11/27 06:55:44;;;;;;;25.93;19.30;;;;;;;7.52;62.42;100680.22;5073379;28;20189;-54
2022/11/27 06:58:12;;;;;;;26.30;18.50;;;;;;;7.22;62.99;100637.88;5073090;28;20654;-53
2022/11/27 07:00:39;;;;;;;25.53;19.03;;;;;;;7.46;62.83;100659.47;5072834;28;20189;-53
2022/11/27 07:03:05;;;;;;;27.17;17.83;;;;;;;7.58;62.56;100677.09;5072837;28;20201;-53
2022/11/27 07:05:32;;;;;;;22.23;17.17;;;;;;;7.54;62.81;100668.38;5072759;28;20719;-54
2022/11/27 07:07:59;;;;;;;24.67;16.73;;;;;;;7.62;63.09;100672.16;5072544;28;20573;-53
2022/11/27 07:10:27;;;;;;;24.40;17.27;;;;;;;7.64;63.31;100673.09;5073671;28;20194;-54
2022/11/27 07:12:54;;;;;;;22.03;17.07;;;;;;;7.68;63.48;100675.03;5072698;28;20197;-54
2022/11/27 07:15:21;;;;;;;24.10;18.23;;;;;;;7.71;62.88;100677.72;5072856;28;20205;-54
2022/11/27 07:17:47;;;;;;;21.67;17.73;;;;;;;7.78;63.16;100667.75;5072788;28;20198;-54
2022/11/27 07:20:14;;;;;;;27.33;18.67;;;;;;;7.88;63.20;100675.06;5072679;28;20195;-54
2022/11/27 07:22:41;;;;;;;27.03;18.67;;;;;;;7.88;62.45;100683.63;5073422;28;20190;-54
2022/11/27 07:25:08;;;;;;;29.47;21.50;;;;;;;7.87;63.29;100683.53;5072153;28;20692;-54
2022/11/27 07:27:37;;;;;;;24.40;19.30;;;;;;;7.93;62.79;100678.69;5072919;28;20190;-54
2022/11/27 07:30:04;;;;;;;26.87;18.17;;;;;;;7.77;62.53;100635.31;5072398;28;20210;-54
2022/11/27 07:32:31;;;;;;;24.67;19.03;;;;;;;8.04;62.65;100678.38;5072250;28;20626;-54
2022/11/27 07:34:58;;;;;;;31.73;19.23;;;;;;;8.00;62.33;100673.03;5073110;28;20227;-55
2022/11/27 07:37:25;;;;;;;25.53;19.87;;;;;;;8.16;62.33;100685.72;5072361;28;20188;-54
2022/11/27 07:39:52;;;;;;;24.65;20.15;;;;;;;8.17;62.71;100684.91;5072036;28;20433;-54
2022/11/27 07:42:19;;;;;;;27.03;18.67;;;;;;;8.25;62.45;100681.88;5072046;28;20682;-54
2022/11/27 07:44:47;;;;;;;24.17;18.10;;;;;;;8.40;62.02;100681.72;5070509;28;20188;-54
2022/11/27 07:47:13;;;;;;;25.63;18.37;;;;;;;8.50;61.62;100683.00;5062730;28;20188;-54
2022/11/27 07:49:42;;;;;;;24.43;18.50;;;;;;;8.55;61.76;100678.94;5052193;28;20605;-55
2022/11/27 07:52:09;;;;;;;26.20;20.07;;;;;;;8.56;61.36;100686.72;5051954;28;20200;-53
2022/11/27 07:54:36;;;;;;;34.30;20.10;;;;;;;8.60;61.40;100691.13;5051894;28;20186;-54
2022/11/27 07:57:03;;;;;;;26.80;18.23;;;;;;;8.55;61.02;100667.00;5051925;28;20193;-54
2022/11/27 07:59:30;;;;;;;23.60;16.90;;;;;;;8.71;61.08;100689.03;5051602;28;20191;-54
2022/11/27 08:01:58;;;;;;;23.07;18.60;;;;;;;8.79;60.54;100685.09;5052100;28;20199;-54
2022/11/27 08:04:25;;;;;;;23.63;18.70;;;;;;;8.81;60.76;100680.94;5051910;28;20190;-55
2022/11/27 08:06:52;;;;;;;26.03;18.67;;;;;;;8.70;60.79;100694.97;5052290;28;20309;-54
2022/11/27 08:09:18;;;;;;;24.17;17.63;;;;;;;8.69;61.54;100686.41;5051831;28;20195;-54
2022/11/27 08:11:45;;;;;;;25.57;18.70;;;;;;;8.82;61.07;100680.09;5051653;28;20188;-54
2022/11/27 08:14:13;;;;;;;25.30;17.60;;;;;;;8.83;60.57;100681.88;5051968;28;20192;-54
2022/11/27 08:16:40;;;;;;;27.47;18.07;;;;;;;8.62;60.72;100675.84;5051315;28;20282;-55
2022/11/27 08:19:10;;;;;;;28.70;19.27;;;;;;;8.54;61.57;100672.94;5051571;28;20230;-54
2022/11/27 08:21:37;;;;;;;21.40;17.70;;;;;;;8.76;61.06;100672.19;5059880;28;20199;-53
2022/11/27 08:24:04;;;;;;;26.50;18.30;;;;;;;8.89;60.68;100666.75;5068341;28;20738;-53
2022/11/27 08:26:31;;;;;;;23.63;17.63;;;;;;;8.90;60.27;100671.94;5069942;28;20227;-54
2022/11/27 08:28:58;;;;;;;24.20;19.10;;;;;;;9.07;60.19;100674.31;5071641;28;20272;-54
2022/11/27 08:31:25;;;;;;;26.00;18.47;;;;;;;9.22;59.42;100670.69;5071595;28;20213;-55
2022/11/27 08:33:52;;;;;;;26.10;18.97;;;;;;;9.26;59.31;100669.13;5071280;28;20199;-54
2022/11/27 08:36:21;;;;;;;27.90;17.57;;;;;;;9.37;58.57;100667.84;5072092;28;20214;-54
2022/11/27 08:38:48;;;;;;;24.43;17.17;;;;;;;9.47;58.39;100664.84;5071549;28;20194;-53
2022/11/27 08:41:15;;;;;;;26.43;18.10;;;;;;;9.57;57.97;100664.38;5071623;28;20191;-53
2022/11/27 08:43:42;;;;;;;21.87;17.97;;;;;;;9.63;58.24;100666.31;5071689;28;20194;-53
2022/11/27 08:46:08;;;;;;;22.33;17.60;;;;;;;9.64;57.83;100662.94;5071882;28;20219;-54
2022/11/27 08:48:35;;;;;;;24.07;19.03;;;;;;;9.75;57.83;100667.66;5071346;28;20195;-53
2022/11/27 08:51:06;;;;;;;25.73;19.87;;;;;;;9.82;57.58;100667.06;5071540;28;20195;-53
2022/11/27 08:53:36;;;;;;;22.23;18.00;;;;;;;9.69;57.32;100631.50;5071768;28;20190;-54
2022/11/27 08:56:06;;;;;;;29.37;17.90;;;;;;;9.97;56.28;100669.34;5057745;28;20192;-54
2022/11/27 08:58:33;;;;;;;23.30;18.17;;;;;;;10.01;56.27;100661.81;5047900;28;20180;-55
2022/11/27 09:01:07;;;;;;;20.10;15.77;;;;;;;10.04;55.69;100656.78;5050701;28;20208;-54
2022/11/27 09:03:34;;;;;;;22.88;17.58;;;;;;;9.81;56.23;100656.72;5050936;28;20434;-55
2022/11/27 09:06:00;;;;;;;26.10;18.07;;;;;;;9.91;55.99;100659.72;5050666;28;20216;-54
2022/11/27 09:08:27;;;;;;;24.17;17.87;;;;;;;9.91;56.18;100649.47;5049249;28;20202;-53
2022/11/27 09:11:00;;;;;;;23.37;18.03;;;;;;;10.02;55.83;100657.56;5051004;28;20613;-53
2022/11/27 09:13:26;;;;;;;25.97;18.80;;;;;;;10.08;55.54;100644.91;5054485;28;20184;-54
2022/11/27 09:15:53;;;;;;;22.93;16.83;;;;;;;10.21;55.32;100652.31;5051768;28;20730;-53
2022/11/27 09:18:20;;;;;;;25.10;18.40;;;;;;;10.23;54.96;100647.22;5061082;28;20571;-53
2022/11/27 09:20:55;;;;;;;20.67;16.23;;;;;;;10.25;54.13;100643.88;5044625;28;20188;-54
2022/11/27 09:23:22;;;;;;;22.43;17.20;;;;;;;10.26;54.04;100637.94;5041169;28;20199;-54
2022/11/27 09:25:49;;;;;;;19.63;15.77;;;;;;;10.32;53.69;100627.00;5042971;28;20221;-55
2022/11/27 09:28:17;;;;;;;29.07;17.37;;;;;;;10.26;54.30;100630.22;5043123;28;20242;-53
2022/11/27 09:30:44;;;;;;;26.90;17.77;;;;;;;10.17;54.09;100634.16;5034942;28;20199;-54
2022/11/27 09:33:11;;;;;;;22.97;17.57;;;;;;;10.19;54.47;100606.84;5034981;28;20193;-54
2022/11/27 09:35:38;;;;;;;23.07;18.00;;;;;;;10.40;53.96;100607.59;5038267;28;20278;-54
2022/11/27 09:38:04;;;;;;;22.60;17.47;;;;;;;10.53;53.56;100612.31;5051451;28;20200;-54
2022/11/27 09:40:31;;;;;;;25.83;16.90;;;;;;;10.66;53.08;100604.19;5050359;28;20193;-54
2022/11/27 09:43:05;;;;;;;24.73;18.23;;;;;;;10.78;52.58;100599.47;5045230;28;20196;-54
2022/11/27 09:45:34;;;;;;;26.83;17.33;;;;;;;10.65;52.23;100569.06;5034485;28;20181;-54
2022/11/27 09:48:05;;;;;;;23.20;17.93;;;;;;;10.77;52.22;100578.88;5043384;28;20291;-53
2022/11/27 09:50:37;;;;;;;25.40;18.10;;;;;;;10.88;52.67;100580.06;5058584;28;20203;-54
2022/11/27 09:53:13;;;;;;;24.33;17.63;;;;;;;11.00;52.35;100578.78;5057093;28;20569;-54
2022/11/27 09:55:44;;;;;;;26.50;19.93;;;;;;;11.11;51.82;100584.25;5054879;28;20187;-54
2022/11/27 09:58:17;;;;;;;28.42;21.67;;;;;;;11.19;51.95;100582.78;5052787;28;20929;-53
2022/11/27 10:00:45;;;;;;;27.10;20.17;;;;;;;10.95;51.28;100577.75;5053487;28;20655;-53
2022/11/27 10:03:13;;;;;;;27.47;19.20;;;;;;;11.02;51.75;100564.25;5063487;28;20213;-53
2022/11/27 10:05:48;;;;;;;25.13;18.80;;;;;;;10.91;51.68;100564.72;5066355;28;20250;-53
2022/11/27 10:08:39;;;;;;;25.27;18.70;;;;;;;10.60;52.79;100568.03;5042999;28;20200;-53
2022/11/27 10:11:18;;;;;;;25.08;21.55;;;;;;;10.72;52.83;100558.13;5033203;28;20819;-54
2022/11/27 10:13:58;;;;;;;24.50;18.53;;;;;;;10.93;51.80;100563.09;5050096;28;20242;-53
2022/11/27 10:16:36;;;;;;;21.60;16.70;;;;;;;10.97;51.15;100557.22;5053467;28;20268;-53
2022/11/27 10:19:11;;;;;;;21.57;17.27;;;;;;;11.03;51.21;100562.56;5053916;28;20193;-54
2022/11/27 10:21:45;;;;;;;26.83;19.37;;;;;;;11.11;51.69;100553.38;5051502;28;20629;-54
2022/11/27 10:24:20;;;;;;;23.87;18.33;;;;;;;10.71;51.60;100548.69;5053830;28;20191;-55
2022/11/27 10:26:49;;;;;;;26.40;20.40;;;;;;;10.91;51.67;100546.72;5061410;28;20769;-55
2022/11/27 10:29:30;;;;;;;21.57;18.20;;;;;;;11.06;51.04;100548.09;5073747;28;20213;-53
2022/11/27 10:32:04;;;;;;;29.53;19.77;;;;;;;11.17;50.84;100544.16;5065480;28;20225;-53
2022/11/27 10:34:37;;;;;;;24.83;19.17;;;;;;;10.97;50.58;100542.66;5053537;28;20682;-54
2022/11/27 10:37:12;;;;;;;28.10;18.30;;;;;;;11.04;50.40;100536.88;5053865;28;20594;-54
2022/11/27 10:39:46;;;;;;;24.33;19.13;;;;;;;10.73;50.63;100517.88;5053273;28;20188;-54
2022/11/27 10:42:19;;;;;;;22.87;18.43;;;;;;;11.11;50.68;100530.25;5053537;28;20188;-53
2022/11/27 10:44:51;;;;;;;26.08;20.38;;;;;;;11.35;49.76;100518.09;5053055;28;20525;-54
2022/11/27 10:47:23;;;;;;;22.53;18.43;;;;;;;11.61;48.81;100519.75;5052899;28;20216;-54
2022/11/27 10:49:49;;;;;;;24.57;17.00;;;;;;;11.75;48.18;100515.00;5052802;28;20189;-54
2022/11/27 10:52:19;;;;;;;26.10;18.50;;;;;;;11.80;47.59;100497.97;5053197;28;20201;-54
2022/11/27 10:54:52;;;;;;;23.00;17.70;;;;;;;11.75;47.99;100503.00;5052512;28;20201;-53
2022/11/27 10:58:01;;;;;;;20.03;15.80;;;;;;;11.85;47.27;100501.53;5061516;28;20284;-52
2022/11/27 11:00:28;;;;;;;21.40;17.03;;;;;;;12.03;46.78;100496.88;5058105;28;20200;-53
2022/11/27 11:03:05;;;;;;;20.77;16.77;;;;;;;12.00;46.82;100486.53;5052625;28;20646;-53
2022/11/27 11:05:33;;;;;;;30.77;17.07;;;;;;;12.15;46.05;100489.47;5052685;28;20634;-53
2022/11/27 11:08:04;;;;;;;20.30;16.30;;;;;;;12.19;46.00;100485.28;5052448;28;20278;-52
2022/11/27 11:10:35;;;;;;;20.27;16.43;;;;;;;12.26;45.67;100484.59;5052714;28;20193;-53
2022/11/27 11:13:21;;;;;;;21.33;17.43;;;;;;;12.33;45.88;100477.03;5052647;28;20257;-53
2022/11/27 11:15:51;;;;;;;20.97;17.43;;;;;;;12.32;46.09;100471.88;5053061;28;20609;-54
2022/11/27 11:18:21;;;;;;;25.87;17.50;;;;;;;12.43;45.46;100475.56;5052358;28;20192;-54
2022/11/27 11:20:50;;;;;;;19.37;13.97;;;;;;;12.49;44.41;100472.28;5052401;28;20207;-54
2022/11/27 11:23:24;;;;;;;21.77;15.90;;;;;;;12.33;44.66;100446.13;5052258;28;20192;-53